Time;durP1;ratioP1;P1;durP2;ratioP2;P2;SDS_P1;SDS_P2;PMS_P1;PMS_P2;Temp;Humidity;BMP_temperature;BMP_pressure;BME280_temperature;BME280_humidity;BME280_pressure;Samples;Min_cycle;Max_cycle;Signal;HPM_P1;HPM_P2
2022/01/09 00:01:12;;;;;;;1.30;1.17;;;;;;;-143.35;97.75;76011.69;5052716;28;20440;-75
2022/01/09 00:04:01;;;;;;;1.40;1.30;;;;;;;-143.35;97.40;76009.69;5053030;28;20433;-74
2022/01/09 00:06:49;;;;;;;1.47;1.37;;;;;;;-143.35;97.40;76009.69;5051924;28;20471;-75
2022/01/09 00:09:38;;;;;;;2.00;1.60;;;;;;;-143.35;97.44;76009.69;5051562;28;20455;-75
2022/01/09 00:12:26;;;;;;;1.20;1.10;;;;;;;-143.35;97.60;76003.75;5051702;28;20590;-75
2022/01/09 00:15:14;;;;;;;1.20;1.10;;;;;;;-143.35;97.47;75995.84;5062401;28;20439;-75
2022/01/09 00:18:01;;;;;;;1.40;1.27;;;;;;;-143.35;97.47;75989.91;5071487;28;20467;-75
2022/01/09 00:20:51;;;;;;;2.10;1.27;;;;;;;-143.35;97.21;75993.88;5071993;28;20448;-76
2022/01/09 00:23:39;;;;;;;1.33;1.23;;;;;;;-143.35;97.52;75995.84;5071519;28;20466;-75
2022/01/09 00:26:26;;;;;;;1.30;1.10;;;;;;;-143.35;97.96;75985.97;5064944;28;20476;-74
2022/01/09 00:29:14;;;;;;;1.20;1.10;;;;;;;-143.35;97.97;75991.91;5051329;28;20487;-75
2022/01/09 00:32:01;;;;;;;1.30;1.20;;;;;;;-143.35;97.90;75993.88;5051386;28;20887;-76
2022/01/09 00:34:49;;;;;;;1.20;1.10;;;;;;;-143.35;98.21;75984.00;5058310;28;20433;-75
2022/01/09 00:37:39;;;;;;;1.13;1.03;;;;;;;-143.35;97.76;75980.03;5057068;28;20471;-73
2022/01/09 00:40:27;;;;;;;1.20;1.10;;;;;;;-143.35;97.90;75984.00;5051586;28;20524;-75
2022/01/09 00:43:15;;;;;;;1.10;1.00;;;;;;;-143.35;98.00;75982.00;5052287;28;20451;-76
2022/01/09 00:46:02;;;;;;;1.03;0.93;;;;;;;-143.35;98.29;75982.00;5067456;28;20444;-75
2022/01/09 00:48:50;;;;;;;1.00;0.90;;;;;;;-143.35;98.07;75966.19;5070887;28;20493;-75
2022/01/09 00:51:38;;;;;;;0.87;0.80;;;;;;;-143.35;97.92;75948.38;5071396;28;20534;-75
2022/01/09 00:54:27;;;;;;;0.97;0.80;;;;;;;-143.35;97.02;75948.38;5068024;28;20466;-75
2022/01/09 00:57:15;;;;;;;1.10;1.00;;;;;;;-143.35;97.24;75964.22;5048929;28;20468;-75
2022/01/09 01:00:04;;;;;;;0.90;0.70;;;;;;;-143.35;97.40;75956.28;5052130;28;20448;-75
2022/01/09 01:02:52;;;;;;;1.17;0.80;;;;;;;-143.35;97.50;75964.22;5049761;28;20532;-76
2022/01/09 01:05:40;;;;;;;0.80;0.70;;;;;;;-143.35;97.47;75954.31;5063826;28;20871;-75
2022/01/09 01:08:27;;;;;;;1.07;0.80;;;;;;;-143.35;96.91;75940.47;5071227;28;20470;-75
2022/01/09 01:11:17;;;;;;;0.90;0.70;;;;;;;-143.35;96.55;75948.38;5071279;28;20443;-75
2022/01/09 01:14:05;;;;;;;0.70;0.70;;;;;;;-143.35;96.96;75962.22;5071070;28;20459;-75
2022/01/09 01:16:52;;;;;;;0.70;0.60;;;;;;;-143.35;97.78;75948.38;5050807;28;20464;-75
2022/01/09 01:19:40;;;;;;;1.00;0.90;;;;;;;-143.35;97.70;75952.34;5050616;28;20453;-75
2022/01/09 01:22:28;;;;;;;2.70;0.80;;;;;;;-143.35;98.05;75948.38;5050963;28;20821;-75
2022/01/09 01:25:17;;;;;;;0.83;0.80;;;;;;;-143.35;98.08;75948.38;5051222;28;20449;-75
2022/01/09 01:28:06;;;;;;;0.80;0.70;;;;;;;-143.35;98.37;75946.41;5062878;28;20471;-76
2022/01/09 01:30:53;;;;;;;0.80;0.70;;;;;;;-143.35;97.66;75928.59;5052836;28;20437;-76
2022/01/09 01:33:42;;;;;;;1.70;0.83;;;;;;;-143.35;97.22;75940.47;5051196;28;20467;-75
2022/01/09 01:36:30;;;;;;;0.73;0.67;;;;;;;-143.35;97.33;75946.41;5049756;28;20445;-75
2022/01/09 01:39:17;;;;;;;0.80;0.80;;;;;;;-143.35;97.40;75944.44;5053773;28;20982;-74
2022/01/09 01:42:06;;;;;;;0.70;0.70;;;;;;;-143.35;97.80;75944.44;5070222;28;20450;-76
2022/01/09 01:44:55;;;;;;;0.87;0.80;;;;;;;-143.35;97.85;75936.50;5074883;28;20451;-75
2022/01/09 01:47:43;;;;;;;0.80;0.80;;;;;;;-143.35;97.48;75944.44;5074738;28;20475;-75
2022/01/09 01:50:35;;;;;;;0.77;0.70;;;;;;;-143.35;98.08;75946.41;5058196;28;20443;-75
2022/01/09 01:53:25;;;;;;;3.43;0.80;;;;;;;-143.35;98.25;75948.38;5052639;28;20467;-76
2022/01/09 01:56:19;;;;;;;0.80;0.70;;;;;;;-143.35;98.22;75948.38;5054258;28;21049;-75
2022/01/09 01:59:07;;;;;;;1.10;0.80;;;;;;;-143.35;98.58;75938.50;5059196;28;20451;-75
2022/01/09 02:01:57;;;;;;;0.93;0.63;;;;;;;-143.35;98.41;75940.47;5063075;28;20944;-75
2022/01/09 02:04:44;;;;;;;1.23;0.80;;;;;;;-143.35;98.13;75938.50;5054243;28;20514;-75
2022/01/09 02:07:33;;;;;;;0.90;0.80;;;;;;;-143.35;98.22;75952.34;5053732;28;20860;-75
2022/01/09 02:10:21;;;;;;;0.90;0.70;;;;;;;-143.35;98.46;75948.38;5059456;28;20455;-76
2022/01/09 02:13:09;;;;;;;0.90;0.80;;;;;;;-143.35;98.60;75958.28;5054966;28;20448;-76
2022/01/09 02:15:58;;;;;;;1.13;1.00;;;;;;;-143.35;98.86;75958.28;5054529;28;20436;-75
2022/01/09 02:18:48;;;;;;;3.47;1.00;;;;;;;-143.35;98.88;75948.38;5054334;28;20988;-75
2022/01/09 02:21:40;;;;;;;0.93;0.70;;;;;;;-143.35;98.60;75950.38;5053941;28;20451;-75
2022/01/09 02:24:27;;;;;;;1.20;1.10;;;;;;;-143.35;98.79;75964.22;5053543;28;20470;-75
2022/01/09 02:27:16;;;;;;;1.53;1.40;;;;;;;-143.35;98.48;75958.28;5054191;28;20696;-75
2022/01/09 02:30:06;;;;;;;2.13;1.93;;;;;;;-143.35;98.59;75980.03;5066323;28;20947;-75
2022/01/09 02:32:54;;;;;;;2.43;2.23;;;;;;;-143.35;98.91;75958.28;5054887;28;20437;-75
2022/01/09 02:35:42;;;;;;;2.17;1.60;;;;;;;-143.35;99.81;75980.03;5054676;28;20467;-75
2022/01/09 02:38:31;;;;;;;1.47;1.37;;;;;;;-143.35;100.00;75999.81;5053088;28;20479;-75
2022/01/09 02:41:19;;;;;;;0.90;0.90;;;;;;;-143.35;100.00;76055.19;5053426;28;20428;-75
2022/01/09 02:44:11;;;;;;;2.10;1.10;;;;;;;-143.35;100.00;76057.16;5053261;28;20940;-75
2022/01/09 02:47:02;;;;;;;1.37;1.10;;;;;;;-143.35;100.00;76084.88;5053299;28;20460;-75
2022/01/09 02:49:53;;;;;;;2.67;1.53;;;;;;;-143.35;100.00;76104.66;5061834;28;20443;-75
2022/01/09 02:52:50;;;;;;;1.13;1.03;;;;;;;-143.35;100.00;76164.00;5054291;28;20502;-76
2022/01/09 02:55:40;;;;;;;3.37;1.03;;;;;;;-143.35;100.00;76177.84;5053639;28;20483;-75
2022/01/09 02:58:28;;;;;;;0.50;0.33;;;;;;;-143.35;100.00;76199.59;5053076;28;20472;-74
2022/01/09 03:01:15;;;;;;;0.53;0.40;;;;;;;-143.35;100.00;76221.34;5053993;28;21029;-75
2022/01/09 03:04:03;;;;;;;0.50;0.40;;;;;;;-143.35;100.00;76213.44;5053957;28;20503;-75
2022/01/09 03:06:51;;;;;;;0.50;0.40;;;;;;;-143.35;100.00;76221.34;5052990;28;20482;-73
2022/01/09 03:09:39;;;;;;;0.50;0.40;;;;;;;-143.35;100.00;76213.44;5060698;28;20451;-75
2022/01/09 03:12:28;;;;;;;0.50;0.40;;;;;;;-143.35;100.00;76233.22;5059824;28;20457;-75
2022/01/09 03:15:16;;;;;;;0.50;0.40;;;;;;;-143.35;100.00;76229.25;5069394;28;20497;-75
2022/01/09 03:18:05;;;;;;;0.50;0.40;;;;;;;-143.35;100.00;76235.19;5068668;22;20541;-81
2022/01/09 03:20:52;;;;;;;0.50;0.40;;;;;;;-143.35;100.00;76231.25;5016344;28;20942;-80
2022/01/09 03:23:40;;;;;;;0.50;0.40;;;;;;;-143.35;100.00;76237.19;5030787;28;20533;-80
2022/01/09 03:26:28;;;;;;;0.50;0.40;;;;;;;-143.35;100.00;76237.19;5018191;28;20854;-80
2022/01/09 03:29:17;;;;;;;0.60;0.40;;;;;;;-143.35;100.00;76227.28;5015528;28;20466;-80
2022/01/09 03:32:06;;;;;;;0.50;0.40;;;;;;;-143.35;100.00;76243.13;5006326;28;20449;-80
2022/01/09 03:34:54;;;;;;;0.50;0.40;;;;;;;-143.35;100.00;76225.31;4998440;28;20470;-79
2022/01/09 03:37:44;;;;;;;0.50;0.40;;;;;;;-143.35;100.00;76241.13;4997972;28;20455;-80
2022/01/09 03:40:31;;;;;;;0.50;0.40;;;;;;;-143.35;100.00;76233.22;5011593;28;20442;-79
2022/01/09 03:43:19;;;;;;;0.50;0.40;;;;;;;-143.35;100.00;76247.06;5016287;28;20787;-81
2022/01/09 03:46:09;;;;;;;0.60;0.40;;;;;;;-143.35;100.00;76247.06;5016500;28;20473;-81
2022/01/09 03:48:56;;;;;;;0.50;0.40;;;;;;;-143.35;100.00;76241.13;5017109;28;20498;-80
2022/01/09 03:51:47;;;;;;;0.50;0.40;;;;;;;-143.35;100.00;76262.88;5007036;28;20938;-79
2022/01/09 03:54:36;;;;;;;0.50;0.40;;;;;;;-143.35;100.00;76264.88;5002993;28;20854;-80
2022/01/09 03:57:24;;;;;;;0.50;0.40;;;;;;;-143.35;100.00;76266.84;5020173;28;20501;-81
2022/01/09 04:00:14;;;;;;;0.50;0.30;;;;;;;-143.35;100.00;76264.88;5015465;28;20450;-80
2022/01/09 04:03:03;;;;;;;0.50;0.40;;;;;;;-143.35;100.00;76274.75;5015480;28;20449;-81
2022/01/09 04:05:51;;;;;;;0.50;0.30;;;;;;;-143.35;100.00;76280.69;5016228;28;20435;-81
2022/01/09 04:08:39;;;;;;;0.50;0.40;;;;;;;-143.35;100.00;76288.59;5015194;28;20561;-79
2022/01/09 04:11:28;;;;;;;0.50;0.40;;;;;;;-143.35;100.00;76298.50;4997193;28;20458;-80
2022/01/09 04:14:16;;;;;;;0.50;0.40;;;;;;;-143.35;100.00;76316.31;4997305;28;20471;-79
2022/01/09 04:17:07;;;;;;;0.50;0.40;;;;;;;-143.35;100.00;76310.38;4996818;28;20597;-80
2022/01/09 04:19:56;;;;;;;0.60;0.40;;;;;;;-143.35;100.00;76324.22;5007987;28;20442;-79
2022/01/09 04:22:44;;;;;;;0.50;0.40;;;;;;;-143.35;100.00;76334.09;5016624;28;20814;-80
2022/01/09 04:25:32;;;;;;;0.50;0.40;;;;;;;-143.35;100.00;76334.09;5016005;28;20500;-79
2022/01/09 04:28:19;;;;;;;0.50;0.40;;;;;;;-143.35;100.00;76340.03;5015287;28;20493;-81
2022/01/09 04:31:07;;;;;;;0.50;0.40;;;;;;;-143.35;100.00;76349.94;5016070;28;20442;-81
2022/01/09 04:33:55;;;;;;;0.50;0.40;;;;;;;-143.35;100.00;76367.72;5015589;28;20666;-79
2022/01/09 04:36:44;;;;;;;0.50;0.40;;;;;;;-143.35;100.00;76383.56;5015250;28;20961;-79
2022/01/09 04:39:32;;;;;;;0.50;0.40;;;;;;;-143.35;100.00;76375.66;5016240;28;20958;-81
2022/01/09 04:42:22;;;;;;;0.50;0.40;;;;;;;-143.35;100.00;76379.59;5016312;28;21051;-81
2022/01/09 04:45:12;;;;;;;0.50;0.37;;;;;;;-143.35;100.00;76391.47;5014740;28;20443;-80
2022/01/09 04:48:03;;;;;;;0.60;0.40;;;;;;;-143.35;100.00;76387.50;5015989;28;20470;-81
2022/01/09 04:50:53;;;;;;;0.50;0.40;;;;;;;-143.35;100.00;76385.53;5014262;28;20969;-79
2022/01/09 04:53:42;;;;;;;0.50;0.40;;;;;;;-143.35;100.00;76379.59;5014805;28;20430;-81
2022/01/09 04:56:29;;;;;;;0.50;0.40;;;;;;;-143.35;100.00;76371.69;5013763;28;20446;-80
2022/01/09 04:59:17;;;;;;;0.50;0.40;;;;;;;-143.35;100.00;76365.75;5014141;28;20476;-81
2022/01/09 05:02:05;;;;;;;0.50;0.40;;;;;;;-143.35;100.00;76357.84;5014961;28;20442;-82
2022/01/09 05:04:53;;;;;;;0.50;0.40;;;;;;;-143.35;100.00;76361.81;5014117;28;20446;-79
2022/01/09 05:07:40;;;;;;;0.50;0.40;;;;;;;-143.35;100.00;76379.59;5014949;28;20466;-80
2022/01/09 05:10:29;;;;;;;0.50;0.30;;;;;;;-143.35;100.00;76373.66;5015007;28;20469;-80
2022/01/09 05:13:17;;;;;;;0.50;0.40;;;;;;;-143.35;100.00;76379.59;5015120;28;20450;-80
2022/01/09 05:16:05;;;;;;;0.73;0.70;;;;;;;-143.35;100.00;76399.38;5015481;28;20469;-80
2022/01/09 05:18:58;;;;;;;0.50;0.40;;;;;;;-143.35;100.00;76403.34;5015921;28;20482;-80
2022/01/09 05:21:46;;;;;;;0.50;0.40;;;;;;;-143.35;100.00;76415.22;5014745;28;21032;-81
2022/01/09 05:24:34;;;;;;;0.50;0.30;;;;;;;-143.35;100.00;76409.28;5015580;28;20445;-81
2022/01/09 05:27:23;;;;;;;0.50;0.40;;;;;;;-143.35;100.00;76433.00;4997258;28;20448;-81
2022/01/09 05:30:11;;;;;;;0.50;0.40;;;;;;;-143.35;100.00;76435.00;5015054;28;20529;-81
2022/01/09 05:32:58;;;;;;;0.50;0.40;;;;;;;-143.35;100.00;76435.00;5030229;28;20442;-80
2022/01/09 05:35:46;;;;;;;0.50;0.40;;;;;;;-143.35;100.00;76454.78;5017255;28;20470;-79
2022/01/09 05:38:34;;;;;;;0.50;0.40;;;;;;;-143.35;100.00;76472.56;5016952;28;20484;-79
2022/01/09 05:41:22;;;;;;;0.50;0.40;;;;;;;-143.35;100.00;76474.56;5017501;28;20438;-80
2022/01/09 05:44:11;;;;;;;0.50;0.40;;;;;;;-143.35;100.00;76476.53;5019127;28;20438;-79
2022/01/09 05:46:58;;;;;;;0.50;0.40;;;;;;;-143.35;100.00;76490.38;5016054;28;20516;-78
2022/01/09 05:49:46;;;;;;;0.60;0.40;;;;;;;-143.35;100.00;76502.25;5017246;28;20541;-81
2022/01/09 05:52:34;;;;;;;0.50;0.40;;;;;;;-143.35;100.00;76506.22;5018087;28;20446;-81
2022/01/09 05:55:21;;;;;;;0.50;0.40;;;;;;;-143.35;100.00;76494.34;5018181;28;20557;-80
2022/01/09 05:58:09;;;;;;;0.50;0.40;;;;;;;-143.35;100.00;76526.00;5017062;28;20521;-80
2022/01/09 06:00:58;;;;;;;0.50;0.40;;;;;;;-143.35;100.00;76506.22;5016379;28;20585;-79
2022/01/09 06:03:46;;;;;;;0.50;0.40;;;;;;;-143.35;100.00;76514.13;5018475;28;20535;-78
2022/01/09 06:06:33;;;;;;;0.50;0.40;;;;;;;-143.35;100.00;76529.94;5031388;28;20851;-79
2022/01/09 06:09:21;;;;;;;0.50;0.30;;;;;;;-143.35;100.00;76522.03;5016821;28;20474;-81
2022/01/09 06:12:10;;;;;;;14.30;3.60;;;;;;;-143.35;100.00;76526.00;5014191;28;20446;-79
2022/01/09 06:14:58;;;;;;;15.57;3.70;;;;;;;-143.35;100.00;76527.97;5011867;28;20480;-80
2022/01/09 06:17:47;;;;;;;18.13;4.33;;;;;;;-143.35;100.00;76543.78;5026757;28;20466;-79
2022/01/09 06:20:35;;;;;;;16.17;3.57;;;;;;;-143.35;100.00;76551.72;5011602;28;20438;-79
2022/01/09 06:23:23;;;;;;;17.33;3.03;;;;;;;-143.35;100.00;76565.56;4995560;28;20454;-78
2022/01/09 06:26:11;;;;;;;9.37;3.97;;;;;;;-143.35;100.00;76555.66;5008465;28;20560;-77
2022/01/09 06:28:58;;;;;;;9.13;3.40;;;;;;;-143.35;100.00;76563.59;5000452;28;20475;-78
2022/01/09 06:31:46;;;;;;;16.77;4.30;;;;;;;-143.35;100.00;76541.81;5007034;28;20450;-81
2022/01/09 06:34:36;;;;;;;8.70;3.13;;;;;;;-143.35;100.00;76573.47;5027994;28;20480;-79
2022/01/09 06:37:23;;;;;;;8.93;4.37;;;;;;;-143.35;100.00;76577.44;5016141;28;20458;-79
2022/01/09 06:40:12;;;;;;;10.07;2.93;;;;;;;-143.35;100.00;76579.41;5017040;28;20888;-79
2022/01/09 06:43:00;;;;;;;14.97;3.00;;;;;;;-143.35;100.00;76573.47;5013492;28;20469;-78
2022/01/09 06:45:48;;;;;;;7.47;2.67;;;;;;;-143.35;100.00;76587.31;5016369;28;20501;-79
2022/01/09 06:48:35;;;;;;;11.67;2.97;;;;;;;-143.35;100.00;76601.16;5017964;28;20465;-78
2022/01/09 06:51:24;;;;;;;8.70;2.67;;;;;;;-143.35;100.00;76591.28;4995805;28;20451;-80
2022/01/09 06:54:13;;;;;;;7.47;2.77;;;;;;;-143.35;100.00;76617.00;4996715;28;20947;-80
2022/01/09 06:57:01;;;;;;;10.33;3.40;;;;;;;-143.35;100.00;76624.91;4996705;28;20460;-82
2022/01/09 06:59:48;;;;;;;17.67;3.40;;;;;;;-143.35;100.00;76620.94;4997309;28;21021;-79
2022/01/09 07:02:36;;;;;;;7.23;3.87;;;;;;;-143.35;100.00;76605.13;5000564;28;20451;-78
2022/01/09 07:05:24;;;;;;;11.57;3.93;;;;;;;-143.35;99.98;76601.16;4997138;28;20450;-79
2022/01/09 07:08:13;;;;;;;5.37;3.20;;;;;;;-143.35;99.53;76607.09;5007883;28;20463;-80
2022/01/09 07:11:01;;;;;;;12.60;2.87;;;;;;;-143.35;99.94;76622.94;4996190;28;20451;-81
2022/01/09 07:13:48;;;;;;;10.97;3.73;;;;;;;-143.35;100.00;76615.03;4999733;28;20446;-80
2022/01/09 07:16:36;;;;;;;9.67;4.17;;;;;;;-143.35;99.94;76615.03;5005729;28;20481;-80
2022/01/09 07:19:24;;;;;;;10.10;2.93;;;;;;;-143.35;99.82;76618.97;5014963;28;20477;-81
2022/01/09 07:22:11;;;;;;;13.90;5.00;;;;;;;-143.35;100.00;76634.81;5015590;28;20984;-78
2022/01/09 07:25:00;;;;;;;10.00;3.40;;;;;;;-143.35;100.00;76640.72;5014416;28;20466;-78
2022/01/09 07:27:48;;;;;;;7.10;3.40;;;;;;;-143.35;100.00;76648.66;5014955;28;20528;-79
2022/01/09 07:30:36;;;;;;;8.80;4.50;;;;;;;-143.35;100.00;76664.47;5014466;28;20435;-79
2022/01/09 07:33:24;;;;;;;13.20;3.00;;;;;;;-143.35;100.00;76668.44;5013133;28;20449;-79
2022/01/09 07:36:11;;;;;;;9.03;4.20;;;;;;;-143.35;100.00;76656.56;5026820;28;20553;-79
2022/01/09 07:38:59;;;;;;;11.50;3.60;;;;;;;-143.35;100.00;76672.38;4999356;28;21009;-80
2022/01/09 07:41:49;;;;;;;15.30;4.17;;;;;;;-143.35;100.00;76668.44;4996245;28;20462;-79
2022/01/09 07:44:40;;;;;;;15.63;5.00;;;;;;;-143.35;100.00;76676.34;4992962;28;20448;-79
2022/01/09 07:47:28;;;;;;;12.57;4.50;;;;;;;-143.35;100.00;76678.31;4995741;28;20470;-79
2022/01/09 07:50:15;;;;;;;8.13;3.60;;;;;;;-143.35;100.00;76692.16;4992745;28;20439;-80
2022/01/09 07:53:03;;;;;;;9.83;3.70;;;;;;;-143.35;100.00;76692.16;4995897;28;20451;-79
2022/01/09 07:55:51;;;;;;;18.50;4.73;;;;;;;-143.35;100.00;76686.25;4997079;28;20474;-80
2022/01/09 07:58:40;;;;;;;8.97;3.27;;;;;;;-143.35;99.11;76672.38;5013351;28;20466;-79
2022/01/09 08:01:28;;;;;;;13.53;4.10;;;;;;;-143.35;98.10;76668.44;5014030;28;20493;-82
2022/01/09 08:04:15;;;;;;;12.93;4.60;;;;;;;-143.35;98.66;76680.31;5012409;28;20473;-79
2022/01/09 08:07:03;;;;;;;9.93;4.30;;;;;;;-143.35;99.14;76690.19;5013503;28;20445;-79
2022/01/09 08:09:51;;;;;;;19.20;4.67;;;;;;;-143.35;99.56;76684.25;5013555;28;20454;-79
2022/01/09 08:12:39;;;;;;;19.63;5.20;;;;;;;-143.35;99.02;76684.25;5012987;28;20450;-80
2022/01/09 08:15:28;;;;;;;11.70;4.00;;;;;;;-143.35;98.93;76694.16;5013679;28;20494;-81
2022/01/09 08:18:16;;;;;;;12.63;4.47;;;;;;;-143.35;99.14;76694.16;5013991;28;20564;-79
2022/01/09 08:21:03;;;;;;;9.83;4.20;;;;;;;-143.35;98.64;76690.19;5013777;28;20450;-80
2022/01/09 08:23:51;;;;;;;8.43;3.30;;;;;;;-143.35;97.65;76690.19;5014218;28;20453;-80
2022/01/09 08:26:39;;;;;;;13.70;3.53;;;;;;;-143.35;97.61;76680.31;5013221;28;20788;-79
2022/01/09 08:29:27;;;;;;;12.13;4.00;;;;;;;-143.35;98.02;76696.13;5013084;28;20470;-79
2022/01/09 08:32:16;;;;;;;7.60;3.30;;;;;;;-143.35;97.84;76692.16;5013565;28;20946;-80
2022/01/09 08:35:05;;;;;;;11.13;4.13;;;;;;;-143.35;97.94;76708.00;5013817;28;20473;-78
2022/01/09 08:37:53;;;;;;;8.90;2.90;;;;;;;-143.35;97.92;76711.94;5011880;28;20462;-79
2022/01/09 08:40:40;;;;;;;12.57;3.43;;;;;;;-143.35;98.29;76713.94;5013875;28;20450;-82
2022/01/09 08:43:31;;;;;;;7.20;3.40;;;;;;;-143.35;98.44;76729.75;5014178;28;20450;-79
2022/01/09 08:46:18;;;;;;;6.07;2.83;;;;;;;-143.35;97.04;76715.91;5011694;28;20450;-80
2022/01/09 08:49:07;;;;;;;7.03;3.57;;;;;;;-143.35;97.10;76729.75;5012968;28;20549;-79
2022/01/09 08:51:55;;;;;;;8.07;3.20;;;;;;;-143.35;96.73;76719.88;5013957;28;20450;-80
2022/01/09 08:54:43;;;;;;;8.97;3.17;;;;;;;-143.35;96.69;76735.69;5011967;28;20443;-80
2022/01/09 08:57:31;;;;;;;9.33;2.90;;;;;;;-143.35;97.63;76753.50;5013347;28;20458;-78
2022/01/09 09:00:19;;;;;;;6.63;2.67;;;;;;;-143.35;97.08;76719.88;5012819;28;20536;-79
2022/01/09 09:03:07;;;;;;;8.23;3.70;;;;;;;-143.35;95.12;76713.94;5013522;28;20449;-79
2022/01/09 09:05:56;;;;;;;9.53;3.07;;;;;;;-143.35;94.97;76721.84;5013049;28;20815;-80
2022/01/09 09:08:44;;;;;;;8.90;4.23;;;;;;;-143.35;96.34;76711.94;5020036;28;20466;-82
2022/01/09 09:11:32;;;;;;;7.37;3.40;;;;;;;-143.35;96.26;76694.16;5015986;28;20442;-79
2022/01/09 09:14:20;;;;;;;11.07;4.50;;;;;;;-143.35;95.49;76715.91;4997830;28;20447;-80
2022/01/09 09:17:08;;;;;;;9.00;3.87;;;;;;;-143.35;95.05;76713.94;4999694;28;20512;-80
2022/01/09 09:19:56;;;;;;;9.00;4.30;;;;;;;-143.35;94.27;76708.00;5085224;23;20483;-76
2022/01/09 09:22:45;;;;;;;9.57;4.40;;;;;;;-143.35;94.07;76698.09;5058762;28;20445;-77
2022/01/09 09:25:33;;;;;;;7.57;3.40;;;;;;;-143.35;91.77;76704.03;5059332;28;20474;-77
2022/01/09 09:28:21;;;;;;;9.60;3.27;;;;;;;-143.35;91.58;76713.94;5057087;28;20468;-79
2022/01/09 09:31:08;;;;;;;8.73;3.90;;;;;;;-143.35;93.17;76729.75;5058990;28;20470;-77
2022/01/09 09:33:56;;;;;;;10.53;3.60;;;;;;;-143.35;93.80;76725.81;5059600;28;20448;-76
2022/01/09 09:36:44;;;;;;;16.57;5.10;;;;;;;-143.35;94.32;76749.53;5059343;28;20498;-76
2022/01/09 09:39:33;;;;;;;9.80;3.20;;;;;;;-143.35;94.06;76747.56;5060012;28;20476;-76
2022/01/09 09:42:21;;;;;;;11.10;4.37;;;;;;;-143.35;94.97;76751.53;5061596;28;20969;-78
2022/01/09 09:45:11;;;;;;;17.70;4.13;;;;;;;-143.35;94.33;76753.50;5057929;28;20467;-79
2022/01/09 09:47:59;;;;;;;9.57;4.20;;;;;;;-143.35;95.03;76755.47;5058794;28;20456;-76
2022/01/09 09:50:47;;;;;;;8.60;3.73;;;;;;;-143.35;93.87;76743.59;5060296;28;20502;-77
2022/01/09 09:53:34;;;;;;;8.53;4.70;;;;;;;-143.35;92.61;76749.53;5060358;28;20454;-77
2022/01/09 09:56:23;;;;;;;7.60;3.93;;;;;;;-143.35;93.52;76751.53;5059635;28;20537;-79
2022/01/09 09:59:11;;;;;;;5.63;3.60;;;;;;;-143.35;91.75;76735.69;5059771;28;20547;-77
2022/01/09 10:01:58;;;;;;;9.40;3.63;;;;;;;-143.35;92.52;76761.41;5065030;28;20455;-78
2022/01/09 10:05:01;;;;;;;12.20;3.83;;;;;;;-143.35;92.95;76743.59;5063898;28;20522;-77
2022/01/09 10:07:49;;;;;;;9.90;4.07;;;;;;;-143.35;91.40;76743.59;5062601;28;20537;-78
2022/01/09 10:10:38;;;;;;;11.17;3.80;;;;;;;-143.35;90.34;76751.53;5065124;28;20443;-78
2022/01/09 10:13:27;;;;;;;10.03;3.97;;;;;;;-143.35;92.06;76781.19;5064784;28;20448;-78
2022/01/09 10:16:15;;;;;;;9.37;4.27;;;;;;;-143.35;92.19;76779.22;5062888;28;20474;-79
2022/01/09 10:19:03;;;;;;;6.90;3.77;;;;;;;-143.35;92.45;76789.13;5060635;28;20550;-78
2022/01/09 10:21:50;;;;;;;5.03;4.17;;;;;;;-143.35;92.59;76793.06;5064825;28;20467;-78
2022/01/09 10:24:38;;;;;;;12.00;4.87;;;;;;;-143.35;93.24;76795.06;5066616;28;20439;-80
2022/01/09 10:27:35;;;;;;;7.40;3.77;;;;;;;-143.35;92.10;76779.22;5064614;28;20471;-78
2022/01/09 10:30:27;;;;;;;9.90;4.70;;;;;;;-143.35;90.89;76767.34;5063713;28;20443;-76
2022/01/09 10:33:18;;;;;;;7.53;4.23;;;;;;;-143.35;91.34;76765.38;5061103;28;20952;-78
2022/01/09 10:36:05;;;;;;;10.47;4.60;;;;;;;-143.35;90.46;76763.41;5062361;28;20455;-76
2022/01/09 10:38:53;;;;;;;9.03;4.33;;;;;;;-143.35;90.38;76771.31;5061411;28;20491;-77
2022/01/09 10:41:55;;;;;;;6.73;3.70;;;;;;;-143.35;88.79;76753.50;5064376;28;20977;-77
2022/01/09 10:44:44;;;;;;;10.43;3.90;;;;;;;-143.35;89.30;76759.44;5062857;28;20454;-77
2022/01/09 10:47:37;;;;;;;8.30;4.10;;;;;;;-143.35;88.89;76761.41;5061931;28;20432;-77
2022/01/09 10:50:28;;;;;;;9.80;4.77;;;;;;;-143.35;88.45;76749.53;5062508;28;20440;-77
2022/01/09 10:53:19;;;;;;;6.87;3.77;;;;;;;-143.35;88.36;76767.34;5061634;28;20951;-76
2022/01/09 10:56:10;;;;;;;7.23;3.00;;;;;;;-143.35;88.98;76753.50;5060057;28;20472;-74
2022/01/09 10:58:58;;;;;;;10.13;4.13;;;;;;;-143.35;88.58;76731.75;5061636;28;20934;-79
2022/01/09 11:01:46;;;;;;;10.20;4.37;;;;;;;-143.35;87.00;76706.03;5061617;28;20449;-78
2022/01/09 11:04:35;;;;;;;7.13;4.00;;;;;;;-143.35;85.73;76709.97;5061056;28;20455;-80
2022/01/09 11:07:24;;;;;;;6.73;4.00;;;;;;;-143.35;85.04;76711.94;5061450;28;20444;-78
2022/01/09 11:10:16;;;;;;;4.57;3.60;;;;;;;-143.35;85.37;76731.75;5060136;28;20503;-78
2022/01/09 11:13:04;;;;;;;8.33;3.30;;;;;;;-143.35;84.25;76715.91;5060830;28;20445;-77
2022/01/09 11:19:10;;;;;;;5.73;3.83;;;;;;;-143.35;85.29;76715.91;5060382;28;20558;-80
2022/01/09 11:22:01;;;;;;;10.67;4.40;;;;;;;-143.35;86.09;76719.88;5060793;28;20519;-78
2022/01/09 11:25:05;;;;;;;5.20;3.80;;;;;;;-143.35;85.46;76717.88;5061106;28;20536;-78
2022/01/09 11:28:02;;;;;;;3.83;3.50;;;;;;;-143.35;86.08;76731.75;5060834;28;20439;-78
2022/01/09 11:31:00;;;;;;;8.13;4.30;;;;;;;-143.35;86.55;76719.88;5060244;28;20448;-77
2022/01/09 11:33:56;;;;;;;6.37;5.17;;;;;;;-143.35;86.08;76709.97;5061057;28;20523;-79
2022/01/09 11:36:59;;;;;;;8.07;3.47;;;;;;;-143.35;84.66;76706.03;5059871;28;20466;-81
2022/01/09 11:39:48;;;;;;;6.17;3.83;;;;;;;-143.35;85.82;76715.91;5061484;28;20489;-78
2022/01/09 11:42:59;;;;;;;13.17;4.80;;;;;;;-143.35;85.75;76735.69;5061805;28;20447;-78
2022/01/09 11:45:50;;;;;;;7.60;4.93;;;;;;;-143.35;85.24;76725.81;5060491;28;20439;-77
2022/01/09 11:48:43;;;;;;;8.70;4.00;;;;;;;-143.35;86.07;76731.75;5059432;28;20926;-78
2022/01/09 11:51:33;;;;;;;7.33;3.50;;;;;;;-143.35;86.97;76739.66;5060700;28;20458;-77
2022/01/09 11:54:22;;;;;;;8.00;3.23;;;;;;;-143.35;86.61;76749.53;5059235;28;20498;-78
2022/01/09 11:57:18;;;;;;;8.57;4.30;;;;;;;-143.35;86.05;76747.56;5060654;28;20471;-78
2022/01/09 12:00:08;;;;;;;5.40;3.40;;;;;;;-143.35;85.14;76723.81;5061998;28;20855;-78
2022/01/09 12:02:57;;;;;;;5.30;3.67;;;;;;;-143.35;85.18;76713.94;5060362;28;20487;-79
2022/01/09 12:06:00;;;;;;;9.73;3.50;;;;;;;-143.35;84.66;76704.03;5059025;28;20437;-77
2022/01/09 12:09:07;;;;;;;8.27;4.60;;;;;;;-143.35;84.04;76708.00;5060951;28;20455;-79
2022/01/09 12:12:09;;;;;;;6.30;3.23;;;;;;;-143.35;81.59;76674.38;5063264;28;20449;-77
2022/01/09 12:15:02;;;;;;;6.07;2.80;;;;;;;-143.35;81.96;76676.34;5060029;28;20440;-81
2022/01/09 12:17:50;;;;;;;6.90;3.40;;;;;;;-143.35;82.04;76672.38;5060151;28;20468;-78
2022/01/09 12:20:42;;;;;;;7.97;3.50;;;;;;;-143.35;81.46;76660.53;5060002;28;20433;-80
2022/01/09 12:23:31;;;;;;;5.73;3.50;;;;;;;-143.35;82.12;76636.78;5058801;28;20460;-78
2022/01/09 12:26:27;;;;;;;7.33;3.37;;;;;;;-143.35;80.73;76601.16;5059817;28;20439;-78
2022/01/09 12:29:43;;;;;;;8.10;4.13;;;;;;;-143.35;78.87;76549.72;5059102;28;20516;-78
2022/01/09 12:32:44;;;;;;;9.10;3.87;;;;;;;-143.35;75.92;76537.88;5059863;28;20443;-78
2022/01/09 12:35:32;;;;;;;9.40;3.97;;;;;;;-143.35;75.92;76581.38;5059906;28;20448;-78
2022/01/09 12:38:22;;;;;;;8.37;3.60;;;;;;;-143.35;76.56;76605.13;5058718;28;21070;-78
2022/01/09 12:41:12;;;;;;;8.50;3.83;;;;;;;-143.35;76.91;76601.16;5059749;28;20448;-78
2022/01/09 12:44:04;;;;;;;5.97;3.80;;;;;;;-143.35;76.71;76591.28;5059640;28;20539;-78
2022/01/09 12:46:51;;;;;;;9.40;3.80;;;;;;;-143.35;78.55;76611.06;5060556;28;20447;-78
2022/01/09 12:49:40;;;;;;;8.67;3.20;;;;;;;-143.35;77.10;76597.22;5059455;28;20464;-79
2022/01/09 12:52:28;;;;;;;6.17;3.53;;;;;;;-143.35;77.71;76587.31;5061523;28;20436;-80
2022/01/09 12:55:16;;;;;;;9.37;3.80;;;;;;;-143.35;79.40;76585.34;5059205;28;20444;-76